Time;durP1;ratioP1;P1;durP2;ratioP2;P2;SDS_P1;SDS_P2;PMS_P1;PMS_P2;Temp;Humidity;BMP_temperature;BMP_pressure;BME280_temperature;BME280_humidity;BME280_pressure;Samples;Min_cycle;Max_cycle;Signal;HPM_P1;HPM_P2
2021/07/31 00:00:04;;;;;;;2.40;1.20;;;18.60;58.00;;;;;;5045222;28;20288;-88
2021/07/31 00:02:38;;;;;;;2.90;1.27;;;18.60;58.60;;;;;;5063886;28;20243;-86
2021/07/31 00:05:05;;;;;;;1.83;1.20;;;18.50;58.10;;;;;;5050123;28;20412;-89
2021/07/31 00:07:31;;;;;;;4.60;1.60;;;18.50;58.00;;;;;;5047852;28;20183;-88
2021/07/31 00:09:59;;;;;;;2.70;1.40;;;18.50;58.30;;;;;;5063997;28;20423;-86
2021/07/31 00:12:24;;;;;;;5.23;1.30;;;18.50;58.60;;;;;;5046792;28;20190;-89
2021/07/31 00:14:50;;;;;;;2.83;1.20;;;18.40;58.60;;;;;;5063304;28;20415;-87
2021/07/31 00:17:16;;;;;;;4.90;1.53;;;18.40;58.60;;;;;;5045380;28;20215;-85
2021/07/31 00:19:41;;;;;;;2.43;1.10;;;18.40;58.60;;;;;;5044983;28;20197;-88
2021/07/31 00:22:07;;;;;;;4.87;1.73;;;18.30;58.80;;;;;;5043736;28;20189;-88
2021/07/31 00:24:33;;;;;;;6.90;1.67;;;18.30;59.00;;;;;;5045782;28;20176;-87
2021/07/31 00:26:58;;;;;;;2.63;1.20;;;18.30;58.90;;;;;;5045167;28;20173;-88
2021/07/31 00:29:24;;;;;;;6.57;1.63;;;18.30;58.90;;;;;;5063633;28;20193;-86
2021/07/31 00:31:50;;;;;;;3.73;1.60;;;18.30;59.00;;;;;;5063341;28;20217;-88
2021/07/31 00:34:15;;;;;;;11.50;1.53;;;18.30;59.00;;;;;;5044854;28;20176;-88
2021/07/31 00:36:41;;;;;;;2.90;1.37;;;18.30;59.20;;;;;;5042773;28;20236;-88
2021/07/31 00:39:07;;;;;;;2.90;1.30;;;18.30;59.30;;;;;;5059991;28;20247;-87
2021/07/31 00:41:32;;;;;;;2.17;1.33;;;18.30;59.60;;;;;;5046373;28;20613;-88
2021/07/31 00:43:58;;;;;;;3.83;1.37;;;18.20;59.30;;;;;;5051601;28;20170;-88
2021/07/31 00:46:25;;;;;;;5.27;1.53;;;18.20;59.30;;;;;;5074798;28;20151;-88
2021/07/31 00:48:51;;;;;;;3.03;1.10;;;18.20;59.30;;;;;;5050316;28;20193;-86
2021/07/31 00:51:18;;;;;;;2.00;1.10;;;18.20;59.20;;;;;;5057893;28;20528;-87
2021/07/31 00:53:45;;;;;;;5.53;1.40;;;18.10;59.20;;;;;;5075511;28;20413;-85
2021/07/31 00:56:12;;;;;;;2.33;1.13;;;18.10;59.40;;;;;;5056046;28;20416;-86
2021/07/31 00:58:38;;;;;;;7.20;1.60;;;18.10;59.50;;;;;;5049138;28;20475;-87
2021/07/31 01:01:09;;;;;;;2.40;1.17;;;18.10;59.50;;;;;;5046442;28;20495;-87
2021/07/31 01:03:35;;;;;;;3.30;1.40;;;18.10;59.50;;;;;;5046035;28;20393;-87
2021/07/31 01:06:01;;;;;;;3.70;1.10;;;18.10;59.50;;;;;;5063608;28;20216;-86
2021/07/31 01:08:26;;;;;;;2.30;1.40;;;18.10;59.30;;;;;;5061094;28;21003;-87
2021/07/31 01:10:54;;;;;;;3.67;1.67;;;18.10;59.50;;;;;;5045550;28;20180;-87
2021/07/31 01:13:21;;;;;;;1.87;1.10;;;18.10;59.50;;;;;;5047937;28;20404;-88
2021/07/31 01:16:02;;;;;;;2.30;1.33;;;18.10;59.60;;;;;;5032965;28;20420;-88
2021/07/31 01:18:29;;;;;;;1.80;1.40;;;18.00;59.50;;;;;;5069604;28;20444;-87
2021/07/31 01:20:55;;;;;;;3.20;1.63;;;18.10;59.50;;;;;;5057285;28;20419;-88
2021/07/31 01:23:22;;;;;;;4.30;1.50;;;18.10;59.40;;;;;;5045461;28;20419;-87
2021/07/31 01:25:48;;;;;;;3.67;1.40;;;18.10;59.40;;;;;;5043531;28;20420;-88
2021/07/31 01:28:14;;;;;;;3.37;1.40;;;18.10;59.50;;;;;;5047961;28;20411;-88
2021/07/31 01:30:41;;;;;;;3.33;1.50;;;18.00;59.60;;;;;;5042888;28;20166;-86
2021/07/31 01:33:07;;;;;;;2.10;1.50;;;18.00;59.60;;;;;;5069386;28;20404;-88
2021/07/31 01:35:34;;;;;;;1.73;0.90;;;18.00;59.70;;;;;;5030844;28;20405;-87
2021/07/31 01:38:09;;;;;;;2.10;1.20;;;17.90;59.60;;;;;;5028920;28;20512;-88
2021/07/31 01:40:36;;;;;;;2.73;1.60;;;17.80;60.00;;;;;;5043206;28;20440;-87
2021/07/31 01:43:02;;;;;;;3.33;1.57;;;17.80;60.30;;;;;;5040529;28;20425;-86
2021/07/31 01:45:29;;;;;;;4.10;1.10;;;17.70;60.60;;;;;;5058197;28;20235;-88
2021/07/31 01:47:57;;;;;;;3.27;1.10;;;17.60;60.50;;;;;;5040021;28;20165;-88
2021/07/31 01:50:24;;;;;;;3.23;1.53;;;17.60;60.80;;;;;;5041975;28;20434;-87
2021/07/31 01:52:52;;;;;;;5.50;1.90;;;17.60;61.10;;;;;;5046328;28;20478;-87
2021/07/31 01:55:19;;;;;;;2.47;1.37;;;17.60;61.10;;;;;;5025752;28;20416;-87
2021/07/31 01:57:51;;;;;;;3.97;1.17;;;17.50;61.00;;;;;;5026328;28;20477;-88
2021/07/31 02:00:17;;;;;;;3.20;1.60;;;17.50;61.10;;;;;;5057146;28;20443;-89
2021/07/31 02:02:56;;;;;;;3.13;1.33;;;17.50;61.20;;;;;;5023063;28;20197;-88
2021/07/31 02:05:27;;;;;;;4.03;1.20;;;17.50;61.30;;;;;;5040421;28;20408;-89
2021/07/31 02:07:56;;;;;;;4.50;1.37;;;17.50;61.20;;;;;;5041792;28;20415;-87
2021/07/31 02:10:22;;;;;;;3.40;1.33;;;17.50;61.20;;;;;;5043990;28;20480;-86
2021/07/31 02:12:51;;;;;;;2.60;1.40;;;17.50;61.20;;;;;;5047452;28;20490;-88
2021/07/31 02:15:20;;;;;;;3.03;1.47;;;17.50;62.50;;;;;;5048950;28;20411;-87
2021/07/31 02:17:51;;;;;;;5.20;1.13;;;17.50;61.80;;;;;;5053051;28;20451;-85
2021/07/31 02:20:17;;;;;;;4.10;1.70;;;17.50;61.60;;;;;;5075761;28;20475;-85
2021/07/31 02:22:57;;;;;;;1.53;1.13;;;17.40;61.50;;;;;;5073577;28;20242;-87
2021/07/31 02:25:41;;;;;;;2.70;1.23;;;17.50;61.70;;;;;;5066740;28;20399;-87
2021/07/31 02:28:25;;;;;;;1.70;1.20;;;17.50;61.70;;;;;;5071245;28;20423;-87
2021/07/31 02:30:51;;;;;;;3.00;1.13;;;17.40;61.70;;;;;;5055465;28;20424;-87
2021/07/31 02:33:17;;;;;;;1.77;1.10;;;17.40;62.00;;;;;;5052937;28;20169;-86
2021/07/31 02:35:43;;;;;;;3.30;1.37;;;17.40;62.10;;;;;;5065003;28;20169;-87
2021/07/31 02:38:32;;;;;;;2.03;1.40;;;17.30;62.30;;;;;;5033138;28;20467;-87
2021/07/31 02:40:58;;;;;;;1.83;1.20;;;17.30;62.50;;;;;;5039269;28;20850;-86
2021/07/31 02:43:25;;;;;;;6.33;1.30;;;17.20;62.50;;;;;;5042815;28;20404;-86
2021/07/31 02:45:51;;;;;;;3.83;1.30;;;17.20;62.90;;;;;;5058874;28;20426;-86
2021/07/31 02:48:17;;;;;;;2.10;1.20;;;17.20;63.00;;;;;;5057003;28;20428;-87
2021/07/31 02:50:43;;;;;;;5.23;1.20;;;17.20;62.90;;;;;;5038755;28;20177;-87
2021/07/31 02:53:43;;;;;;;4.40;1.10;;;17.20;62.90;;;;;;5064374;28;20192;-87
2021/07/31 02:56:09;;;;;;;2.93;1.20;;;17.20;63.10;;;;;;5057140;28;20388;-88
2021/07/31 02:58:35;;;;;;;2.67;1.30;;;17.20;63.40;;;;;;5037975;28;20201;-88
2021/07/31 03:01:04;;;;;;;3.07;1.20;;;17.20;63.30;;;;;;5054177;28;20428;-87
2021/07/31 03:03:30;;;;;;;3.13;1.10;;;17.20;63.40;;;;;;5053825;28;20964;-87
2021/07/31 03:05:58;;;;;;;3.97;1.50;;;17.20;63.30;;;;;;5054686;28;20384;-87
2021/07/31 03:08:27;;;;;;;2.20;1.20;;;17.20;63.30;;;;;;5054306;28;20675;-86
2021/07/31 03:11:00;;;;;;;4.70;1.50;;;17.20;63.40;;;;;;5054184;28;20750;-87
2021/07/31 03:13:26;;;;;;;4.27;1.10;;;17.20;63.50;;;;;;5035906;28;20404;-85
2021/07/31 03:15:53;;;;;;;4.63;1.37;;;17.20;63.10;;;;;;5053646;28;20920;-87
2021/07/31 03:18:20;;;;;;;2.57;1.20;;;17.30;63.00;;;;;;5019660;28;20478;-87
2021/07/31 03:20:47;;;;;;;5.33;1.87;;;17.30;62.80;;;;;;5052844;28;20415;-87
2021/07/31 03:23:15;;;;;;;4.37;1.60;;;17.20;63.00;;;;;;5035852;28;20416;-87
2021/07/31 03:25:42;;;;;;;2.33;1.30;;;17.30;63.10;;;;;;5054086;28;20770;-87
2021/07/31 03:28:08;;;;;;;2.37;1.40;;;17.30;62.70;;;;;;5036993;28;20435;-87
2021/07/31 03:30:45;;;;;;;4.10;1.27;;;17.40;62.60;;;;;;5059470;28;20473;-87
2021/07/31 03:33:15;;;;;;;4.00;1.13;;;17.50;62.30;;;;;;5039052;28;20419;-87
2021/07/31 03:35:42;;;;;;;3.53;1.50;;;17.50;62.10;;;;;;5053791;28;20403;-87
2021/07/31 03:38:26;;;;;;;3.97;1.20;;;17.50;62.00;;;;;;5038886;28;20457;-87
2021/07/31 03:40:54;;;;;;;2.20;1.03;;;17.60;61.80;;;;;;5040503;28;20412;-86
2021/07/31 03:43:25;;;;;;;2.93;1.47;;;17.70;61.60;;;;;;5043806;28;20777;-87
2021/07/31 03:45:52;;;;;;;4.80;1.67;;;17.70;61.60;;;;;;5035460;28;20404;-87
2021/07/31 03:48:18;;;;;;;7.33;1.20;;;17.70;61.50;;;;;;5054637;28;20908;-88
2021/07/31 03:50:46;;;;;;;3.23;1.40;;;17.70;61.20;;;;;;5053478;28;20161;-88
2021/07/31 03:53:14;;;;;;;2.40;1.40;;;17.70;61.20;;;;;;5064084;23;20962;-74
2021/07/31 03:55:45;;;;;;;4.23;1.10;;;17.70;61.30;;;;;;5052206;28;20723;-70
2021/07/31 03:58:11;;;;;;;6.50;1.30;;;17.70;61.40;;;;;;5032763;28;20424;-73
2021/07/31 04:00:40;;;;;;;2.97;1.67;;;17.70;61.20;;;;;;5051456;28;20427;-73
2021/07/31 04:03:07;;;;;;;4.83;1.20;;;17.80;61.60;;;;;;5033437;28;20170;-75
2021/07/31 04:05:34;;;;;;;4.20;1.27;;;17.80;61.50;;;;;;5051512;28;20403;-73
2021/07/31 04:08:18;;;;;;;5.23;1.27;;;17.80;61.20;;;;;;5051341;28;20469;-73
2021/07/31 04:11:05;;;;;;;5.63;1.30;;;17.80;61.30;;;;;;5050887;28;20568;-72
2021/07/31 04:13:50;;;;;;;4.63;1.30;;;17.70;61.10;;;;;;5050437;28;20491;-72
2021/07/31 04:16:23;;;;;;;4.20;1.40;;;17.80;61.30;;;;;;5033028;28;20448;-72
2021/07/31 04:18:48;;;;;;;2.87;1.33;;;17.80;61.30;;;;;;5051493;28;20488;-72
2021/07/31 04:21:14;;;;;;;3.43;1.60;;;17.80;61.40;;;;;;5050742;28;20158;-73
2021/07/31 04:23:41;;;;;;;4.20;1.33;;;17.90;61.10;;;;;;5032592;28;20204;-72
2021/07/31 04:26:16;;;;;;;3.13;1.30;;;17.80;61.30;;;;;;5050805;28;20929;-73
2021/07/31 04:28:43;;;;;;;5.20;1.57;;;17.90;61.40;;;;;;5032539;28;20836;-72
2021/07/31 04:31:13;;;;;;;3.90;1.17;;;17.90;61.60;;;;;;5051687;28;20412;-72
2021/07/31 04:33:40;;;;;;;2.17;1.30;;;17.90;61.10;;;;;;5036043;28;20580;-72
2021/07/31 04:36:06;;;;;;;3.27;1.53;;;17.90;61.40;;;;;;5054135;28;20396;-72
2021/07/31 04:38:33;;;;;;;4.00;1.60;;;17.90;61.60;;;;;;5053941;28;20487;-73
2021/07/31 04:40:59;;;;;;;2.53;1.20;;;18.00;61.70;;;;;;5054307;28;20407;-72
2021/07/31 04:43:25;;;;;;;4.47;1.53;;;18.00;61.60;;;;;;5053504;28;20423;-72
2021/07/31 04:45:51;;;;;;;4.30;1.50;;;18.00;61.80;;;;;;5036054;28;20898;-72
2021/07/31 04:48:16;;;;;;;4.30;1.80;;;18.00;62.00;;;;;;5053544;28;20279;-72
2021/07/31 04:50:42;;;;;;;4.47;2.10;;;17.90;61.90;;;;;;5053990;28;20181;-74
2021/07/31 04:53:08;;;;;;;3.70;1.40;;;17.90;62.10;;;;;;5053341;28;20166;-71
2021/07/31 04:55:33;;;;;;;3.30;1.50;;;17.80;62.20;;;;;;5035895;28;20637;-71
2021/07/31 04:57:59;;;;;;;6.03;1.90;;;17.80;62.70;;;;;;5053247;28;20228;-71
2021/07/31 05:00:24;;;;;;;2.30;1.43;;;17.80;62.60;;;;;;5053476;28;20197;-71
2021/07/31 05:02:50;;;;;;;3.90;1.70;;;17.80;62.50;;;;;;5053464;28;20674;-72
2021/07/31 05:05:16;;;;;;;3.20;1.47;;;17.90;62.60;;;;;;5053512;28;20157;-72
2021/07/31 05:07:42;;;;;;;3.53;2.23;;;18.00;62.70;;;;;;5053564;28;20166;-72
2021/07/31 05:10:09;;;;;;;4.60;1.80;;;18.10;62.00;;;;;;5053422;28;20166;-72
2021/07/31 05:12:35;;;;;;;3.67;1.50;;;18.10;61.60;;;;;;5053035;28;20924;-71
2021/07/31 05:15:01;;;;;;;4.80;1.63;;;18.20;61.70;;;;;;5035515;28;20788;-72
2021/07/31 05:17:26;;;;;;;2.80;1.70;;;18.20;61.40;;;;;;5053613;28;20419;-71
2021/07/31 05:19:52;;;;;;;4.40;1.90;;;18.30;61.20;;;;;;5053020;28;20447;-72
2021/07/31 05:22:18;;;;;;;2.10;1.40;;;18.30;61.60;;;;;;5053175;28;20246;-72
2021/07/31 05:24:44;;;;;;;3.50;1.40;;;18.30;61.80;;;;;;5035281;28;20165;-71
2021/07/31 05:27:10;;;;;;;6.70;2.27;;;18.30;61.20;;;;;;5052949;28;20412;-72
2021/07/31 05:29:36;;;;;;;3.13;1.20;;;18.40;61.50;;;;;;5053081;28;20843;-73
2021/07/31 05:32:02;;;;;;;5.63;1.60;;;18.40;61.30;;;;;;5018674;28;20591;-73
2021/07/31 05:34:27;;;;;;;2.80;1.30;;;18.50;61.00;;;;;;5035341;28;20513;-72
2021/07/31 05:36:53;;;;;;;5.83;1.77;;;18.50;60.90;;;;;;5053477;28;20167;-72
2021/07/31 05:39:19;;;;;;;5.17;1.70;;;18.60;61.10;;;;;;5035099;28;20202;-72
2021/07/31 05:41:44;;;;;;;3.83;1.40;;;18.60;60.80;;;;;;5052938;28;20170;-72
2021/07/31 05:44:10;;;;;;;3.47;1.97;;;18.60;60.90;;;;;;5052494;28;20185;-73
2021/07/31 05:46:36;;;;;;;3.70;1.80;;;18.50;61.20;;;;;;5053686;28;20244;-72
2021/07/31 05:49:01;;;;;;;3.70;2.63;;;18.50;61.60;;;;;;5052944;28;20186;-72
2021/07/31 05:51:27;;;;;;;2.73;1.80;;;18.40;61.70;;;;;;5035200;28;20634;-72
2021/07/31 05:53:53;;;;;;;2.87;1.70;;;18.50;61.40;;;;;;5052704;28;20170;-72
2021/07/31 05:56:18;;;;;;;4.10;1.60;;;18.70;61.10;;;;;;5054648;28;20358;-73
2021/07/31 05:58:44;;;;;;;6.30;2.00;;;18.70;60.90;;;;;;5052949;28;20570;-73
2021/07/31 06:01:10;;;;;;;3.40;1.63;;;18.80;61.20;;;;;;5053023;28;20154;-73
2021/07/31 06:03:37;;;;;;;4.93;1.70;;;18.90;60.60;;;;;;5052715;28;20167;-72
2021/07/31 06:06:04;;;;;;;6.90;1.33;;;18.90;60.40;;;;;;5018393;28;20408;-71
2021/07/31 06:08:30;;;;;;;3.23;2.00;;;19.00;60.90;;;;;;5053015;28;20430;-72
2021/07/31 06:11:00;;;;;;;2.43;1.77;;;19.00;60.00;;;;;;5052368;28;20443;-73
2021/07/31 06:13:26;;;;;;;4.23;1.50;;;19.10;59.70;;;;;;5052202;28;20401;-72
2021/07/31 06:19:40;;;;;;;4.00;1.47;;;19.30;59.60;;;;;;5058358;23;20318;-77
2021/07/31 06:22:07;;;;;;;3.50;1.47;;;19.60;58.70;;;;;;5035401;28;20405;-79
2021/07/31 06:24:33;;;;;;;5.37;1.90;;;20.50;58.30;;;;;;5019277;28;20402;-79
2021/07/31 06:26:58;;;;;;;4.60;2.07;;;22.10;55.20;;;;;;5041614;28;20455;-78
2021/07/31 06:29:30;;;;;;;3.50;1.63;;;23.70;51.70;;;;;;5003503;28;20191;-78
2021/07/31 06:31:56;;;;;;;3.70;1.50;;;25.50;48.00;;;;;;5020769;28;20171;-77
2021/07/31 06:34:21;;;;;;;2.07;1.30;;;26.60;46.60;;;;;;5030945;28;20449;-76
2021/07/31 06:36:47;;;;;;;2.37;1.40;;;26.90;44.50;;;;;;5035978;28;20169;-76
2021/07/31 06:39:14;;;;;;;8.77;1.60;;;27.20;43.60;;;;;;5035294;28;20206;-77
2021/07/31 06:41:39;;;;;;;3.67;1.77;;;27.10;42.70;;;;;;4982924;28;20167;-78
2021/07/31 06:44:05;;;;;;;3.00;1.53;;;26.20;43.80;;;;;;4995717;28;20485;-78
2021/07/31 06:46:31;;;;;;;2.37;1.33;;;25.60;45.60;;;;;;5013677;28;20170;-78
2021/07/31 06:48:59;;;;;;;3.93;1.77;;;25.00;45.50;;;;;;4980636;28;20521;-77
2021/07/31 06:51:25;;;;;;;2.83;1.40;;;24.20;48.00;;;;;;5014698;28;20174;-79
2021/07/31 06:53:51;;;;;;;2.50;1.27;;;24.50;47.50;;;;;;4995891;28;20421;-76
2021/07/31 06:56:18;;;;;;;1.47;0.93;;;24.60;47.00;;;;;;4997522;28;20426;-80
2021/07/31 06:58:44;;;;;;;4.17;2.30;;;24.50;47.90;;;;;;5011238;28;20553;-77
2021/07/31 07:01:11;;;;;;;5.17;2.33;;;24.70;47.80;;;;;;5014756;28;20693;-78
2021/07/31 07:03:37;;;;;;;3.00;1.67;;;24.40;47.30;;;;;;4995284;28;21004;-77
2021/07/31 07:06:04;;;;;;;3.30;1.30;;;24.00;47.50;;;;;;5014437;28;20429;-79
2021/07/31 07:08:30;;;;;;;3.20;1.43;;;23.30;48.80;;;;;;5017793;28;20492;-79
2021/07/31 07:10:55;;;;;;;3.30;1.80;;;23.00;49.60;;;;;;4998856;28;20410;-79
2021/07/31 07:13:21;;;;;;;3.10;1.60;;;22.80;50.40;;;;;;4997752;28;20246;-78
2021/07/31 07:15:49;;;;;;;2.63;1.40;;;22.80;50.80;;;;;;5014329;28;20159;-76
2021/07/31 07:18:15;;;;;;;2.60;1.40;;;22.60;50.60;;;;;;5012864;28;20198;-78
2021/07/31 07:20:40;;;;;;;3.70;1.73;;;22.60;51.90;;;;;;4980951;28;20469;-80
2021/07/31 07:23:06;;;;;;;4.03;1.73;;;22.70;51.10;;;;;;5014638;28;20175;-77
2021/07/31 07:25:32;;;;;;;3.13;1.97;;;22.60;52.00;;;;;;5014295;28;20163;-78
2021/07/31 07:27:58;;;;;;;1.97;1.50;;;22.40;51.90;;;;;;4994789;28;20174;-77
2021/07/31 07:30:24;;;;;;;3.33;1.70;;;22.30;52.20;;;;;;5011873;28;20505;-77
2021/07/31 07:32:51;;;;;;;1.67;1.40;;;22.20;52.30;;;;;;4996170;28;20414;-77
2021/07/31 07:35:17;;;;;;;4.00;1.37;;;22.00;52.50;;;;;;5014556;28;20172;-78
2021/07/31 07:37:43;;;;;;;8.60;2.60;;;22.20;52.70;;;;;;5016195;28;20434;-79
2021/07/31 07:40:09;;;;;;;6.57;1.50;;;22.30;51.80;;;;;;5016921;28;20457;-78
2021/07/31 07:42:38;;;;;;;5.30;1.90;;;22.30;52.40;;;;;;5012925;28;20171;-78
2021/07/31 07:45:05;;;;;;;3.73;1.90;;;22.30;52.20;;;;;;5013311;28;20926;-77
2021/07/31 07:47:31;;;;;;;3.17;1.70;;;22.10;51.70;;;;;;5013641;28;20406;-77
2021/07/31 07:49:56;;;;;;;5.27;2.13;;;21.90;52.20;;;;;;5014414;28;20437;-78
2021/07/31 07:52:22;;;;;;;5.07;2.20;;;21.80;52.60;;;;;;5014605;28;20459;-78
2021/07/31 07:54:48;;;;;;;5.43;2.50;;;21.70;53.10;;;;;;4996728;28;20206;-76
2021/07/31 07:57:13;;;;;;;9.03;2.03;;;22.30;52.10;;;;;;5015460;28;20210;-78
2021/07/31 07:59:39;;;;;;;6.20;2.57;;;23.30;51.20;;;;;;4980943;28;20317;-79
2021/07/31 08:02:05;;;;;;;9.03;1.80;;;24.10;49.30;;;;;;4996549;28;20169;-79
2021/07/31 08:04:34;;;;;;;4.07;2.80;;;24.50;48.50;;;;;;5013636;28;20536;-78
2021/07/31 08:07:00;;;;;;;2.67;1.77;;;25.30;46.30;;;;;;4999803;28;20262;-80
2021/07/31 08:09:26;;;;;;;5.03;1.50;;;25.30;46.20;;;;;;5002322;28;20426;-78
2021/07/31 08:11:52;;;;;;;6.93;3.07;;;26.10;45.30;;;;;;5004989;28;20585;-77
2021/07/31 08:14:17;;;;;;;5.70;2.40;;;27.00;43.00;;;;;;5004256;28;20218;-79
2021/07/31 08:16:43;;;;;;;3.13;1.80;;;28.30;41.20;;;;;;5022489;28;20471;-78
2021/07/31 08:19:10;;;;;;;4.40;1.80;;;29.70;39.70;;;;;;5020565;28;20758;-78
2021/07/31 08:21:37;;;;;;;5.37;2.57;;;31.30;36.90;;;;;;5018008;28;20197;-79
2021/07/31 08:24:03;;;;;;;6.30;2.63;;;31.80;34.40;;;;;;5019551;28;20406;-77
2021/07/31 08:26:29;;;;;;;3.33;2.10;;;31.80;34.40;;;;;;5019859;28;20406;-78
2021/07/31 08:28:55;;;;;;;4.70;1.63;;;30.60;34.90;;;;;;5018938;28;20432;-77
2021/07/31 08:31:20;;;;;;;3.20;1.47;;;28.60;37.00;;;;;;5001895;28;20176;-78
2021/07/31 08:33:46;;;;;;;3.60;1.80;;;27.30;39.60;;;;;;5001982;28;20178;-78
2021/07/31 08:36:11;;;;;;;4.20;1.90;;;26.00;41.30;;;;;;5020522;28;20624;-78
2021/07/31 08:38:37;;;;;;;3.10;1.27;;;24.80;44.00;;;;;;5019748;28;20187;-79
2021/07/31 08:41:06;;;;;;;10.03;2.17;;;23.70;46.20;;;;;;5020748;28;20231;-77
2021/07/31 08:43:33;;;;;;;8.30;2.30;;;23.10;47.30;;;;;;5020186;28;20179;-79
2021/07/31 08:46:04;;;;;;;6.83;1.80;;;22.80;48.60;;;;;;5006298;28;20504;-78
2021/07/31 08:48:31;;;;;;;4.10;1.90;;;22.50;49.50;;;;;;5006059;28;20497;-79
2021/07/31 08:50:59;;;;;;;5.73;1.80;;;22.20;50.50;;;;;;5018970;28;20456;-77
2021/07/31 08:53:28;;;;;;;4.63;1.83;;;22.10;51.00;;;;;;5016717;28;20418;-80
2021/07/31 08:55:54;;;;;;;5.33;1.40;;;21.70;51.70;;;;;;4999790;28;20492;-78
2021/07/31 08:58:23;;;;;;;3.83;1.67;;;21.60;52.00;;;;;;5016578;28;20440;-78
2021/07/31 09:00:53;;;;;;;2.17;1.40;;;21.60;52.00;;;;;;5018686;28;20422;-77
2021/07/31 09:03:20;;;;;;;6.27;1.93;;;21.50;52.60;;;;;;5015835;28;20426;-77
2021/07/31 09:05:46;;;;;;;4.40;2.53;;;21.60;53.00;;;;;;5014789;28;20972;-80
2021/07/31 09:08:12;;;;;;;3.10;1.57;;;21.80;53.80;;;;;;5017597;28;20451;-78
2021/07/31 09:10:39;;;;;;;6.40;2.50;;;22.10;52.80;;;;;;5018115;28;20411;-78
2021/07/31 09:13:12;;;;;;;7.90;1.73;;;22.40;52.60;;;;;;5017736;28;20470;-78
2021/07/31 09:15:47;;;;;;;3.80;1.60;;;22.70;51.80;;;;;;4984259;28;20418;-77
2021/07/31 09:18:22;;;;;;;1.87;1.10;;;22.40;51.30;;;;;;4999065;28;20461;-78
2021/07/31 09:20:58;;;;;;;2.30;1.37;;;21.90;52.50;;;;;;4998835;28;20440;-77
2021/07/31 09:23:36;;;;;;;6.17;1.50;;;21.40;53.40;;;;;;5016734;28;20425;-78
2021/07/31 09:26:02;;;;;;;4.03;1.73;;;21.60;53.60;;;;;;5016721;28;20402;-78
2021/07/31 09:28:28;;;;;;;3.03;1.57;;;23.00;53.00;;;;;;4997960;28;20509;-76
2021/07/31 09:30:57;;;;;;;2.90;1.57;;;24.30;49.40;;;;;;5017220;28;20449;-80
2021/07/31 09:33:23;;;;;;;5.00;1.93;;;24.50;48.30;;;;;;5002116;28;20425;-79
2021/07/31 09:35:59;;;;;;;4.13;1.80;;;24.20;47.90;;;;;;5017604;28;20402;-78
2021/07/31 09:38:38;;;;;;;2.43;2.20;;;23.80;48.60;;;;;;5017378;28;20218;-78
2021/07/31 09:41:36;;;;;;;4.37;1.70;;;23.00;49.10;;;;;;5016845;28;20410;-77
2021/07/31 09:44:17;;;;;;;4.00;1.63;;;22.50;50.50;;;;;;5017986;28;20406;-79
2021/07/31 09:46:50;;;;;;;3.23;1.60;;;22.10;51.10;;;;;;5017108;28;20453;-79
2021/07/31 09:49:18;;;;;;;3.87;1.30;;;21.70;52.10;;;;;;5016299;28;20457;-79
2021/07/31 09:51:49;;;;;;;6.43;2.20;;;21.60;52.90;;;;;;5017491;28;20410;-79
2021/07/31 09:54:21;;;;;;;8.03;5.37;;;21.90;52.90;;;;;;5017308;28;20421;-79
2021/07/31 09:56:49;;;;;;;3.17;1.60;;;22.20;52.50;;;;;;4999450;28;20414;-77
2021/07/31 09:59:16;;;;;;;6.10;2.20;;;22.40;51.90;;;;;;5018488;28;20772;-79
2021/07/31 10:01:55;;;;;;;5.37;1.67;;;23.60;51.10;;;;;;5029912;28;20919;-77
2021/07/31 10:04:20;;;;;;;2.40;1.50;;;25.50;47.30;;;;;;5018049;28;20410;-77
2021/07/31 10:06:49;;;;;;;6.60;1.93;;;26.70;44.60;;;;;;5030704;28;20416;-79
2021/07/31 10:09:14;;;;;;;4.63;2.60;;;27.30;42.30;;;;;;5018871;28;20345;-78
2021/07/31 10:11:41;;;;;;;6.33;3.47;;;26.80;42.40;;;;;;5000909;28;20460;-78
2021/07/31 10:14:08;;;;;;;6.73;1.77;;;26.00;43.30;;;;;;5001152;28;20228;-79
2021/07/31 10:16:37;;;;;;;2.40;1.77;;;25.20;44.50;;;;;;5000941;28;20795;-78
2021/07/31 10:19:05;;;;;;;4.30;1.67;;;24.50;45.30;;;;;;5004555;28;20551;-79
2021/07/31 10:22:00;;;;;;;4.47;1.40;;;23.80;46.90;;;;;;5036731;28;20481;-80
2021/07/31 10:24:30;;;;;;;4.03;1.50;;;23.50;48.00;;;;;;5036074;28;20752;-77
2021/07/31 10:27:17;;;;;;;1.90;1.37;;;23.40;47.70;;;;;;5018176;28;20791;-78
2021/07/31 10:29:48;;;;;;;3.87;1.70;;;23.40;47.80;;;;;;5036388;28;20444;-79
2021/07/31 10:32:35;;;;;;;5.27;1.53;;;23.40;47.60;;;;;;5018392;28;20405;-80
2021/07/31 10:35:23;;;;;;;8.93;1.40;;;23.30;48.30;;;;;;5036572;28;20419;-78
2021/07/31 10:37:49;;;;;;;2.30;1.60;;;23.10;48.40;;;;;;5036595;28;20428;-78
2021/07/31 10:40:30;;;;;;;5.40;2.83;;;22.90;49.40;;;;;;5035163;28;20459;-80
2021/07/31 10:42:55;;;;;;;4.60;1.53;;;22.70;49.90;;;;;;5034506;28;20412;-79
2021/07/31 10:45:28;;;;;;;4.77;1.87;;;22.50;50.10;;;;;;5034728;28;20409;-77
2021/07/31 10:47:56;;;;;;;3.00;1.97;;;22.30;50.60;;;;;;5018263;28;20257;-78
2021/07/31 10:50:35;;;;;;;9.70;2.93;;;22.20;51.10;;;;;;5017830;28;20421;-79
2021/07/31 10:53:04;;;;;;;4.60;1.90;;;22.40;52.20;;;;;;5035024;28;20456;-79
2021/07/31 10:55:35;;;;;;;9.70;1.80;;;23.10;50.40;;;;;;5035283;28;20508;-79
2021/07/31 10:58:15;;;;;;;3.70;1.53;;;24.20;48.60;;;;;;5036100;28;20414;-77
2021/07/31 11:00:43;;;;;;;7.97;2.80;;;24.70;47.50;;;;;;5036279;28;20814;-78
2021/07/31 11:03:20;;;;;;;6.40;2.50;;;25.00;46.30;;;;;;5004008;28;20504;-79
2021/07/31 11:05:51;;;;;;;6.30;1.93;;;25.20;46.00;;;;;;5040681;28;20855;-78
2021/07/31 11:08:24;;;;;;;4.70;2.00;;;25.20;45.00;;;;;;5026097;28;20833;-79
2021/07/31 11:10:50;;;;;;;2.80;1.23;;;25.00;45.30;;;;;;5039399;28;20405;-81
2021/07/31 11:13:19;;;;;;;8.40;1.70;;;24.70;45.80;;;;;;5043280;28;20413;-77
2021/07/31 11:15:59;;;;;;;3.93;1.90;;;24.70;45.90;;;;;;5041681;28;20708;-79
2021/07/31 11:18:44;;;;;;;5.43;2.03;;;24.70;45.90;;;;;;5019749;28;20547;-81
2021/07/31 11:21:18;;;;;;;5.20;2.73;;;24.80;46.00;;;;;;5020712;28;20452;-78
2021/07/31 11:23:48;;;;;;;5.07;2.17;;;24.80;45.20;;;;;;5002114;28;20494;-78
2021/07/31 11:26:49;;;;;;;3.13;1.73;;;24.60;45.60;;;;;;5017555;28;20406;-79
2021/07/31 11:29:23;;;;;;;1.80;1.47;;;24.40;45.80;;;;;;5035310;28;20447;-78
2021/07/31 11:32:12;;;;;;;3.83;1.60;;;24.10;45.30;;;;;;5035601;28;20484;-79
2021/07/31 11:34:40;;;;;;;6.20;1.87;;;23.70;46.60;;;;;;5017657;28;20922;-78
2021/07/31 11:37:07;;;;;;;3.23;2.00;;;23.60;46.90;;;;;;5034385;28;20397;-77
2021/07/31 11:39:33;;;;;;;2.37;1.60;;;23.80;47.00;;;;;;5034187;28;20476;-79
2021/07/31 11:42:00;;;;;;;6.20;1.90;;;24.20;47.10;;;;;;4999994;28;20427;-78
2021/07/31 11:44:33;;;;;;;5.83;3.60;;;24.40;46.50;;;;;;5035477;28;20429;-77
2021/07/31 11:47:00;;;;;;;1.97;1.57;;;24.40;46.00;;;;;;5036463;28;20599;-78
2021/07/31 11:49:30;;;;;;;3.80;1.90;;;23.90;46.80;;;;;;5040407;28;20432;-79
2021/07/31 11:51:59;;;;;;;4.83;1.73;;;23.50;47.50;;;;;;5021506;28;20485;-77
2021/07/31 11:54:26;;;;;;;6.67;2.07;;;23.20;48.50;;;;;;5006304;28;20428;-78
2021/07/31 11:56:52;;;;;;;5.00;2.90;;;23.00;48.80;;;;;;5037782;28;20403;-79
2021/07/31 11:59:29;;;;;;;7.37;4.10;;;22.80;49.50;;;;;;5036853;28;20516;-78
2021/07/31 12:01:55;;;;;;;3.37;2.90;;;22.60;49.80;;;;;;5018958;28;20199;-80
2021/07/31 12:04:43;;;;;;;4.00;2.47;;;22.40;50.40;;;;;;5018947;28;20412;-81
2021/07/31 12:07:10;;;;;;;5.33;2.40;;;22.20;51.10;;;;;;5019669;28;20554;-78
2021/07/31 12:09:37;;;;;;;3.30;2.17;;;22.10;51.50;;;;;;5038304;28;20946;-79
2021/07/31 12:12:04;;;;;;;3.50;2.13;;;21.90;51.90;;;;;;5039369;28;20469;-77
2021/07/31 12:14:34;;;;;;;8.87;2.80;;;21.80;52.50;;;;;;5037351;28;20420;-78
2021/07/31 12:17:17;;;;;;;6.03;2.40;;;21.80;53.10;;;;;;5001824;28;20420;-78
2021/07/31 12:19:51;;;;;;;5.10;1.97;;;21.70;53.30;;;;;;5035101;28;21015;-78
2021/07/31 12:22:24;;;;;;;6.03;3.27;;;21.80;53.80;;;;;;5034278;28;20773;-79
2021/07/31 12:25:09;;;;;;;6.33;2.30;;;21.90;53.60;;;;;;5034047;28;20842;-80
2021/07/31 12:27:55;;;;;;;4.23;1.83;;;22.30;53.50;;;;;;5035148;28;20441;-77
2021/07/31 12:30:44;;;;;;;3.93;1.60;;;22.70;52.40;;;;;;5036279;28;20405;-80
2021/07/31 12:33:23;;;;;;;3.07;1.80;;;23.00;50.60;;;;;;5022541;28;20417;-84
2021/07/31 12:35:52;;;;;;;4.43;1.97;;;23.30;50.00;;;;;;5017916;28;20653;-79
2021/07/31 12:38:20;;;;;;;2.50;1.50;;;23.60;49.30;;;;;;5036493;28;20791;-79
2021/07/31 12:40:51;;;;;;;2.90;1.53;;;23.90;47.90;;;;;;5017500;28;20457;-78
2021/07/31 12:43:17;;;;;;;3.37;1.70;;;24.00;48.30;;;;;;5033365;28;20505;-78
2021/07/31 12:45:44;;;;;;;3.90;1.60;;;24.00;48.00;;;;;;5000087;28;20456;-80
2021/07/31 12:48:14;;;;;;;6.90;2.20;;;23.90;48.10;;;;;;5034290;28;20190;-78
2021/07/31 12:50:44;;;;;;;3.60;1.90;;;23.50;49.00;;;;;;5016599;28;20421;-78
2021/07/31 12:53:11;;;;;;;3.77;2.80;;;23.20;49.40;;;;;;5002938;28;20432;-78
2021/07/31 12:55:37;;;;;;;1.90;1.30;;;23.00;50.30;;;;;;5037725;28;20409;-79
2021/07/31 12:58:04;;;;;;;2.07;1.40;;;22.90;50.30;;;;;;5035620;28;20440;-78
2021/07/31 13:00:30;;;;;;;3.40;2.00;;;22.90;50.30;;;;;;5037301;28;20814;-81